Time;durP1;ratioP1;P1;durP2;ratioP2;P2;SDS_P1;SDS_P2;PMS_P1;PMS_P2;Temp;Humidity;BMP_temperature;BMP_pressure;BME280_temperature;BME280_humidity;BME280_pressure;Samples;Min_cycle;Max_cycle;Signal;HPM_P1;HPM_P2
2022/09/22 00:00:30;;;;;;;;;;;;;;;;;;4961451;28;19922;-66
2022/09/22 00:02:58;;;;;;;;;;;;;;;;;;4960439;28;19953;-66
2022/09/22 00:05:26;;;;;;;;;;;;;;;;;;4960096;28;19966;-66
2022/09/22 00:07:52;;;;;;;;;;;;;;;;;;4928806;28;19973;-66
2022/09/22 00:10:20;;;;;;;;;;;;;;;;;;4959075;28;19929;-66
2022/09/22 00:12:48;;;;;;;;;;;;;;;;;;4946930;28;19996;-65
2022/09/22 00:15:14;;;;;;;;;;;;;;;;;;4945176;28;20460;-66
2022/09/22 00:17:39;;;;;;;;;;;;;;;;;;4947480;28;19926;-65
2022/09/22 00:20:07;;;;;;;;;;;;;;;;;;4962447;28;19977;-66
2022/09/22 00:22:32;;;;;;;;;;;;;;;;;;4945723;28;20714;-67
2022/09/22 00:24:58;;;;;;;;;;;;;;;;;;4923401;28;19980;-67
2022/09/22 00:27:26;;;;;;;;;;;;;;;;;;4960836;28;19944;-66
2022/09/22 00:29:52;;;;;;;;;;;;;;;;;;4949322;28;19925;-66
2022/09/22 00:32:18;;;;;;;;;;;;;;;;;;4947107;28;19926;-66
2022/09/22 00:34:43;;;;;;;;;;;;;;;;;;4963765;28;19996;-66
2022/09/22 00:37:08;;;;;;;;;;;;;;;;;;4928383;28;20016;-67
2022/09/22 00:39:34;;;;;;;;;;;;;;;;;;4949069;28;20370;-66
2022/09/22 00:42:02;;;;;;;;;;;;;;;;;;4959046;28;19922;-66
2022/09/22 00:44:30;;;;;;;;;;;;;;;;;;4945751;28;19928;-66
2022/09/22 00:46:55;;;;;;;;;;;;;;;;;;4948789;28;20374;-66
2022/09/22 00:49:21;;;;;;;;;;;;;;;;;;4945891;28;19921;-66
2022/09/22 00:51:48;;;;;;;;;;;;;;;;;;4944893;28;19926;-66
2022/09/22 00:54:13;;;;;;;;;;;;;;;;;;4961511;28;19930;-67
2022/09/22 00:56:39;;;;;;;;;;;;;;;;;;4963203;28;19973;-66
2022/09/22 00:59:07;;;;;;;;;;;;;;;;;;4949793;28;20412;-67
2022/09/22 01:01:39;;;;;;;;;;;;;;;;;;4946411;28;19923;-66
2022/09/22 01:04:04;;;;;;;;;;;;;;;;;;4963914;28;19917;-66
2022/09/22 01:06:29;;;;;;;;;;;;;;;;;;4947041;28;19922;-66
2022/09/22 01:08:55;;;;;;;;;;;;;;;;;;4961774;28;19926;-66
2022/09/22 01:11:20;;;;;;;;;;;;;;;;;;4946560;28;19922;-67
2022/09/22 01:13:50;;;;;;;;;;;;;;;;;;4943876;28;20020;-66
2022/09/22 01:16:18;;;;;;;;;;;;;;;;;;4961268;28;19925;-66
2022/09/22 01:18:43;;;;;;;;;;;;;;;;;;4950235;28;19918;-67
2022/09/22 01:21:12;;;;;;;;;;;;;;;;;;4963770;28;19918;-67
2022/09/22 01:23:37;;;;;;;;;;;;;;;;;;4960852;28;20247;-66
2022/09/22 01:26:02;;;;;;;;;;;;;;;;;;4948975;28;19932;-66
2022/09/22 01:28:27;;;;;;;;;;;;;;;;;;4961561;28;19929;-66
2022/09/22 01:30:53;;;;;;;;;;;;;;;;;;4944887;28;19922;-67
2022/09/22 01:33:21;;;;;;;;;;;;;;;;;;4947628;28;19926;-67
2022/09/22 01:35:49;;;;;;;;;;;;;;;;;;4961005;28;20781;-65
2022/09/22 01:38:17;;;;;;;;;;;;;;;;;;4946704;28;19929;-66
2022/09/22 01:40:42;;;;;;;;;;;;;;;;;;4961809;28;19929;-65
2022/09/22 01:43:08;;;;;;;;;;;;;;;;;;4946857;28;19961;-65
2022/09/22 01:45:33;;;;;;;;;;;;;;;;;;4945404;28;20448;-66
2022/09/22 01:47:58;;;;;;;;;;;;;;;;;;4929008;28;19926;-65
2022/09/22 01:50:26;;;;;;;;;;;;;;;;;;4961542;28;19922;-66
2022/09/22 01:52:51;;;;;;;;;;;;;;;;;;4960666;28;22190;-66
2022/09/22 01:55:17;;;;;;;;;;;;;;;;;;4960401;28;19929;-66
2022/09/22 01:57:42;;;;;;;;;;;;;;;;;;4961435;28;20008;-65
2022/09/22 02:00:08;;;;;;;;;;;;;;;;;;4929018;28;19921;-65
2022/09/22 02:02:33;;;;;;;;;;;;;;;;;;4945827;28;19996;-65
2022/09/22 02:04:59;;;;;;;;;;;;;;;;;;4959622;28;19996;-65
2022/09/22 02:07:25;;;;;;;;;;;;;;;;;;4930660;28;19922;-66
2022/09/22 02:09:54;;;;;;;;;;;;;;;;;;4960925;28;20389;-66
2022/09/22 02:12:19;;;;;;;;;;;;;;;;;;4961019;28;19941;-65
2022/09/22 02:14:47;;;;;;;;;;;;;;;;;;4946562;28;19918;-66
2022/09/22 02:17:15;;;;;;;;;;;;;;;;;;4945911;28;19972;-67
2022/09/22 02:19:42;;;;;;;;;;;;;;;;;;4962042;28;20013;-65
2022/09/22 02:22:08;;;;;;;;;;;;;;;;;;4945319;28;19944;-65
2022/09/22 02:24:33;;;;;;;;;;;;;;;;;;4946391;28;21862;-65
2022/09/22 02:26:59;;;;;;;;;;;;;;;;;;4928744;28;19926;-66
2022/09/22 02:29:27;;;;;;;;;;;;;;;;;;4960104;28;19918;-65
2022/09/22 02:31:53;;;;;;;;;;;;;;;;;;4945454;28;20293;-65
2022/09/22 02:34:23;;;;;;;;;;;;;;;;;;4961774;28;19926;-62
2022/09/22 02:36:48;;;;;;;;;;;;;;;;;;4948112;28;20450;-65
2022/09/22 02:39:14;;;;;;;;;;;;;;;;;;4943822;28;19925;-65
2022/09/22 02:41:39;;;;;;;;;;;;;;;;;;4945884;28;19919;-65
2022/09/22 02:44:04;;;;;;;;;;;;;;;;;;4946221;28;20404;-66
2022/09/22 02:46:30;;;;;;;;;;;;;;;;;;4945231;28;19976;-65
2022/09/22 02:48:57;;;;;;;;;;;;;;;;;;4947835;28;19919;-65
2022/09/22 02:51:26;;;;;;;;;;;;;;;;;;4947439;28;20021;-67
2022/09/22 02:53:51;;;;;;;;;;;;;;;;;;4944286;28;19938;-66
2022/09/22 02:56:16;;;;;;;;;;;;;;;;;;4944096;28;20634;-65
2022/09/22 02:58:44;;;;;;;;;;;;;;;;;;4946587;28;19952;-64
2022/09/22 03:01:09;;;;;;;;;;;;;;;;;;4959774;28;19926;-65
2022/09/22 03:03:37;;;;;;;;;;;;;;;;;;4963314;28;19923;-65
2022/09/22 03:06:02;;;;;;;;;;;;;;;;;;4932344;28;19922;-65
2022/09/22 03:08:27;;;;;;;;;;;;;;;;;;4958794;28;19928;-65
2022/09/22 03:10:55;;;;;;;;;;;;;;;;;;4961091;28;20005;-65
2022/09/22 03:13:23;;;;;;;;;;;;;;;;;;4958939;28;20816;-63
2022/09/22 03:15:50;;;;;;;;;;;;;;;;;;4944948;28;19928;-65
2022/09/22 03:18:15;;;;;;;;;;;;;;;;;;4947031;28;19918;-65
2022/09/22 03:20:41;;;;;;;;;;;;;;;;;;4946547;28;19926;-64
2022/09/22 03:23:09;;;;;;;;;;;;;;;;;;4943529;28;19922;-66
2022/09/22 03:25:39;;;;;;;;;;;;;;;;;;4959869;28;19922;-65
2022/09/22 03:28:05;;;;;;;;;;;;;;;;;;4946551;28;19918;-65
2022/09/22 03:30:30;;;;;;;;;;;;;;;;;;4959951;28;20271;-65
2022/09/22 03:32:58;;;;;;;;;;;;;;;;;;4959938;28;19926;-64
2022/09/22 03:35:23;;;;;;;;;;;;;;;;;;4944845;28;19997;-65
2022/09/22 03:37:49;;;;;;;;;;;;;;;;;;4946096;28;19918;-65
2022/09/22 03:40:15;;;;;;;;;;;;;;;;;;4947545;28;19928;-65
2022/09/22 03:42:40;;;;;;;;;;;;;;;;;;4951083;28;19992;-65
2022/09/22 03:45:08;;;;;;;;;;;;;;;;;;4948528;28;21775;-66
2022/09/22 03:47:33;;;;;;;;;;;;;;;;;;4929385;28;20052;-64
2022/09/22 03:49:59;;;;;;;;;;;;;;;;;;4964243;28;21096;-65
2022/09/22 03:52:24;;;;;;;;;;;;;;;;;;4948203;28;19933;-68
2022/09/22 03:54:54;;;;;;;;;;;;;;;;;;4946635;28;19922;-64
2022/09/22 03:57:22;;;;;;;;;;;;;;;;;;4962186;28;20009;-65
2022/09/22 03:59:48;;;;;;;;;;;;;;;;;;4962469;28;19922;-68
2022/09/22 04:02:13;;;;;;;;;;;;;;;;;;4946775;28;20369;-64
2022/09/22 04:04:38;;;;;;;;;;;;;;;;;;4962752;28;19929;-65
2022/09/22 04:07:04;;;;;;;;;;;;;;;;;;4963596;28;19922;-65
2022/09/22 04:09:29;;;;;;;;;;;;;;;;;;4947801;28;19923;-65
2022/09/22 04:11:57;;;;;;;;;;;;;;;;;;4959951;28;19942;-65
2022/09/22 04:14:22;;;;;;;;;;;;;;;;;;4959440;28;20070;-64
2022/09/22 04:16:47;;;;;;;;;;;;;;;;;;4931162;28;20595;-65
2022/09/22 04:19:15;;;;;;;;;;;;;;;;;;4941842;28;19961;-65
2022/09/22 04:21:44;;;;;;;;;;;;;;;;;;4930952;28;19918;-64
2022/09/22 04:24:10;;;;;;;;;;;;;;;;;;4956815;28;19937;-64
2022/09/22 04:26:35;;;;;;;;;;;;;;;;;;4958356;28;19933;-64
2022/09/22 04:29:01;;;;;;;;;;;;;;;;;;4928435;28;20286;-64
2022/09/22 04:31:26;;;;;;;;;;;;;;;;;;4927238;28;20385;-65
2022/09/22 04:33:52;;;;;;;;;;;;;;;;;;4926037;28;19930;-64
2022/09/22 04:36:17;;;;;;;;;;;;;;;;;;4959914;28;19919;-64
2022/09/22 04:38:43;;;;;;;;;;;;;;;;;;4931177;28;19923;-65
2022/09/22 04:41:08;;;;;;;;;;;;;;;;;;4926837;28;20531;-63
2022/09/22 04:43:34;;;;;;;;;;;;;;;;;;4960145;28;19919;-64
2022/09/22 04:46:00;;;;;;;;;;;;;;;;;;4956487;28;19922;-64
2022/09/22 04:48:28;;;;;;;;;;;;;;;;;;4943966;28;19926;-65
2022/09/22 04:50:53;;;;;;;;;;;;;;;;;;4959695;28;20061;-64
2022/09/22 04:53:18;;;;;;;;;;;;;;;;;;4926178;28;19930;-65
2022/09/22 04:55:47;;;;;;;;;;;;;;;;;;4928979;28;19932;-65
2022/09/22 04:58:12;;;;;;;;;;;;;;;;;;4923195;28;20031;-63
2022/09/22 05:00:38;;;;;;;;;;;;;;;;;;4941844;28;20718;-64
2022/09/22 05:03:03;;;;;;;;;;;;;;;;;;4961725;28;19934;-63
2022/09/22 05:05:28;;;;;;;;;;;;;;;;;;4930266;28;19922;-65
2022/09/22 05:07:54;;;;;;;;;;;;;;;;;;4958706;28;20942;-64
2022/09/22 05:10:25;;;;;;;;;;;;;;;;;;4924541;28;21677;-65
2022/09/22 05:12:52;;;;;;;;;;;;;;;;;;4954488;28;19925;-64
2022/09/22 05:15:21;;;;;;;;;;;;;;;;;;4958205;28;19922;-64
2022/09/22 05:17:46;;;;;;;;;;;;;;;;;;4943179;28;19996;-64
2022/09/22 05:20:16;;;;;;;;;;;;;;;;;;4928529;28;19919;-65
2022/09/22 05:22:44;;;;;;;;;;;;;;;;;;4954341;28;19934;-64
2022/09/22 05:25:10;;;;;;;;;;;;;;;;;;4929822;28;19929;-63
2022/09/22 05:27:39;;;;;;;;;;;;;;;;;;4931623;28;20788;-65
2022/09/22 05:30:04;;;;;;;;;;;;;;;;;;4960279;28;19918;-65
2022/09/22 05:32:32;;;;;;;;;;;;;;;;;;4963453;28;20900;-64
2022/09/22 05:35:02;;;;;;;;;;;;;;;;;;4960785;28;19964;-64
2022/09/22 05:37:27;;;;;;;;;;;;;;;;;;4928666;28;19934;-65
2022/09/22 05:39:53;;;;;;;;;;;;;;;;;;4963353;28;20003;-64
2022/09/22 05:42:22;;;;;;;;;;;;;;;;;;4957955;28;19933;-64
2022/09/22 05:44:47;;;;;;;;;;;;;;;;;;4956701;28;19935;-65
2022/09/22 05:47:15;;;;;;;;;;;;;;;;;;4944923;28;20468;-64
2022/09/22 05:49:40;;;;;;;;;;;;;;;;;;4945500;28;19953;-64
2022/09/22 05:52:08;;;;;;;;;;;;;;;;;;4927790;28;20823;-64
2022/09/22 05:54:33;;;;;;;;;;;;;;;;;;4929723;28;20411;-64
2022/09/22 05:56:59;;;;;;;;;;;;;;;;;;4928135;28;20618;-65
2022/09/22 05:59:24;;;;;;;;;;;;;;;;;;4923633;28;19929;-64
2022/09/22 06:01:50;;;;;;;;;;;;;;;;;;4957575;28;20074;-65
2022/09/22 06:04:16;;;;;;;;;;;;;;;;;;4933748;28;19927;-64
2022/09/22 06:06:42;;;;;;;;;;;;;;;;;;4962416;28;21230;-64
2022/09/22 06:09:11;;;;;;;;;;;;;;;;;;4962009;28;19926;-64
2022/09/22 06:11:39;;;;;;;;;;;;;;;;;;4940070;28;19941;-64
2022/09/22 06:14:07;;;;;;;;;;;;;;;;;;4951054;28;19968;-65
2022/09/22 06:16:35;;;;;;;;;;;;;;;;;;4960479;28;19922;-66
2022/09/22 06:19:00;;;;;;;;;;;;;;;;;;4963261;28;20382;-65
2022/09/22 06:21:28;;;;;;;;;;;;;;;;;;4964892;28;19929;-65
2022/09/22 06:23:56;;;;;;;;;;;;;;;;;;4946543;28;19922;-66
2022/09/22 06:26:21;;;;;;;;;;;;;;;;;;4957069;28;19976;-65
2022/09/22 06:28:49;;;;;;;;;;;;;;;;;;4944957;28;19917;-66
2022/09/22 06:31:14;;;;;;;;;;;;;;;;;;4950660;28;20551;-66
2022/09/22 06:33:47;;;;;;;;;;;;;;;;;;4933099;28;19926;-65
2022/09/22 06:36:12;;;;;;;;;;;;;;;;;;4935193;28;19926;-67
2022/09/22 06:38:37;;;;;;;;;;;;;;;;;;4960311;28;19957;-66
2022/09/22 06:41:05;;;;;;;;;;;;;;;;;;4927921;28;19922;-64
2022/09/22 06:43:36;;;;;;;;;;;;;;;;;;4962268;28;20502;-65
2022/09/22 06:46:02;;;;;;;;;;;;;;;;;;4961925;28;19928;-65
2022/09/22 06:48:27;;;;;;;;;;;;;;;;;;4947261;28;19922;-65
2022/09/22 06:50:53;;;;;;;;;;;;;;;;;;4947323;28;19918;-65
2022/09/22 06:53:23;;;;;;;;;;;;;;;;;;4961147;28;19926;-65
2022/09/22 06:55:51;;;;;;;;;;;;;;;;;;4959921;28;20310;-66
2022/09/22 06:58:16;;;;;;;;;;;;;;;;;;4945869;28;19946;-65
2022/09/22 07:00:46;;;;;;;;;;;;;;;;;;4949252;28;19919;-65
2022/09/22 07:03:12;;;;;;;;;;;;;;;;;;4947153;28;19929;-66
2022/09/22 07:05:37;;;;;;;;;;;;;;;;;;4965184;28;19953;-66
2022/09/22 07:08:04;;;;;;;;;;;;;;;;;;4946793;28;19922;-66
2022/09/22 07:10:36;;;;;;;;;;;;;;;;;;4930333;28;19948;-65
2022/09/22 07:13:01;;;;;;;;;;;;;;;;;;4933845;28;20278;-66
2022/09/22 07:15:29;;;;;;;;;;;;;;;;;;4949274;28;19949;-65
2022/09/22 07:17:57;;;;;;;;;;;;;;;;;;4950296;28;22043;-66
2022/09/22 07:20:25;;;;;;;;;;;;;;;;;;4953327;28;19926;-66
2022/09/22 07:22:51;;;;;;;;;;;;;;;;;;4950473;28;19925;-66
2022/09/22 07:25:17;;;;;;;;;;;;;;;;;;4965819;28;20337;-65
2022/09/22 07:27:47;;;;;;;;;;;;;;;;;;4949563;28;19961;-66
2022/09/22 07:30:20;;;;;;;;;;;;;;;;;;4950488;28;19918;-66
2022/09/22 07:32:46;;;;;;;;;;;;;;;;;;4967431;28;19934;-66
2022/09/22 07:35:11;;;;;;;;;;;;;;;;;;4967621;28;19924;-64
2022/09/22 07:37:39;;;;;;;;;;;;;;;;;;4966831;28;19984;-66
2022/09/22 07:40:05;;;;;;;;;;;;;;;;;;4954199;28;21020;-65
2022/09/22 07:42:30;;;;;;;;;;;;;;;;;;4965602;28;19933;-65
2022/09/22 07:45:14;;;;;;;;;;;;;;;;;;4952709;28;20057;-67
2022/09/22 07:50:24;;;;;;;;;;;;;;;;;;4952934;28;20433;-67
2022/09/22 07:52:50;;;;;;;;;;;;;;;;;;4934687;28;19967;-66
2022/09/22 07:55:15;;;;;;;;;;;;;;;;;;4934755;28;19926;-67
2022/09/22 07:57:47;;;;;;;;;;;;;;;;;;4966731;28;20000;-67
2022/09/22 08:00:13;;;;;;;;;;;;;;;;;;4951923;28;19923;-66
2022/09/22 08:02:43;;;;;;;;;;;;;;;;;;4948996;28;19964;-66
2022/09/22 08:05:09;;;;;;;;;;;;;;;;;;4965535;28;20389;-67
2022/09/22 08:07:37;;;;;;;;;;;;;;;;;;4965999;28;19919;-66
2022/09/22 08:10:02;;;;;;;;;;;;;;;;;;4952013;28;19917;-66
2022/09/22 08:12:27;;;;;;;;;;;;;;;;;;4966631;28;19929;-66
2022/09/22 08:14:56;;;;;;;;;;;;;;;;;;4966059;28;19922;-66
2022/09/22 08:17:22;;;;;;;;;;;;;;;;;;4950047;28;20057;-66
2022/09/22 08:19:55;;;;;;;;;;;;;;;;;;4943668;28;20040;-66
2022/09/22 08:22:21;;;;;;;;;;;;;;;;;;4951199;28;19985;-66
2022/09/22 08:24:46;;;;;;;;;;;;;;;;;;4966341;28;20390;-66
2022/09/22 08:27:12;;;;;;;;;;;;;;;;;;4951712;28;20630;-65
2022/09/22 08:29:42;;;;;;;;;;;;;;;;;;4950474;28;20001;-66
2022/09/22 08:32:10;;;;;;;;;;;;;;;;;;4949805;28;19928;-65
2022/09/22 08:34:35;;;;;;;;;;;;;;;;;;4948741;28;19930;-65
2022/09/22 08:37:00;;;;;;;;;;;;;;;;;;4949645;28;20320;-64
2022/09/22 08:39:26;;;;;;;;;;;;;;;;;;4966071;28;20906;-65
2022/09/22 08:41:52;;;;;;;;;;;;;;;;;;4966493;28;20857;-66
2022/09/22 08:44:18;;;;;;;;;;;;;;;;;;4964941;28;19924;-63
2022/09/22 08:46:46;;;;;;;;;;;;;;;;;;4951008;28;19922;-66
2022/09/22 08:51:58;;;;;;;;;;;;;;;;;;4963915;28;20033;-66
2022/09/22 08:54:26;;;;;;;;;;;;;;;;;;4951215;28;19933;-65
2022/09/22 08:56:57;;;;;;;;;;;;;;;;;;4941677;28;19991;-65
2022/09/22 08:59:22;;;;;;;;;;;;;;;;;;4950896;28;19973;-65
2022/09/22 09:01:51;;;;;;;;;;;;;;;;;;4949520;28;19922;-64
2022/09/22 09:04:17;;;;;;;;;;;;;;;;;;4963386;28;20819;-65
2022/09/22 09:06:45;;;;;;;;;;;;;;;;;;4965725;28;20350;-65
2022/09/22 09:09:10;;;;;;;;;;;;;;;;;;4950700;28;20000;-66
2022/09/22 09:11:36;;;;;;;;;;;;;;;;;;4963639;28;19961;-65
2022/09/22 09:14:01;;;;;;;;;;;;;;;;;;4963473;28;20085;-64
2022/09/22 09:16:27;;;;;;;;;;;;;;;;;;4929284;28;19933;-64
2022/09/22 09:18:55;;;;;;;;;;;;;;;;;;4965048;28;19956;-64
2022/09/22 09:21:23;;;;;;;;;;;;;;;;;;4947263;28;19922;-64
2022/09/22 09:23:48;;;;;;;;;;;;;;;;;;4950334;28;19929;-65
2022/09/22 09:26:17;;;;;;;;;;;;;;;;;;4925692;28;19922;-64
2022/09/22 09:28:42;;;;;;;;;;;;;;;;;;4947011;28;19921;-65
2022/09/22 09:31:07;;;;;;;;;;;;;;;;;;4948767;28;19945;-66
2022/09/22 09:33:33;;;;;;;;;;;;;;;;;;4964130;28;19922;-65
2022/09/22 09:35:58;;;;;;;;;;;;;;;;;;4949620;28;19924;-65
2022/09/22 09:38:24;;;;;;;;;;;;;;;;;;4950425;28;19956;-64
2022/09/22 09:40:53;;;;;;;;;;;;;;;;;;4931640;28;20524;-65
2022/09/22 09:43:23;;;;;;;;;;;;;;;;;;4951764;28;19926;-65
2022/09/22 09:45:51;;;;;;;;;;;;;;;;;;4963925;28;19925;-66
2022/09/22 09:48:17;;;;;;;;;;;;;;;;;;4947810;28;19930;-66
2022/09/22 09:50:45;;;;;;;;;;;;;;;;;;4951734;28;19922;-66
2022/09/22 09:53:11;;;;;;;;;;;;;;;;;;4947334;28;19964;-66
2022/09/22 09:55:40;;;;;;;;;;;;;;;;;;4963316;28;19921;-65
2022/09/22 09:58:05;;;;;;;;;;;;;;;;;;4948509;28;19937;-66
2022/09/22 10:00:31;;;;;;;;;;;;;;;;;;4962110;28;19964;-65
2022/09/22 10:02:56;;;;;;;;;;;;;;;;;;4949485;28;19930;-61
2022/09/22 10:05:24;;;;;;;;;;;;;;;;;;4962042;28;19949;-62
2022/09/22 10:07:50;;;;;;;;;;;;;;;;;;4948855;28;20143;-62
2022/09/22 10:10:15;;;;;;;;;;;;;;;;;;4962168;28;19949;-63
2022/09/22 10:12:43;;;;;;;;;;;;;;;;;;4948047;28;20045;-60
2022/09/22 10:15:08;;;;;;;;;;;;;;;;;;4949391;28;20541;-62
2022/09/22 10:17:35;;;;;;;;;;;;;;;;;;4948968;28;19922;-61
2022/09/22 10:20:01;;;;;;;;;;;;;;;;;;4950910;28;19926;-62
2022/09/22 10:22:26;;;;;;;;;;;;;;;;;;4946068;28;19974;-63
2022/09/22 10:24:52;;;;;;;;;;;;;;;;;;4962028;28;20364;-62
2022/09/22 10:27:17;;;;;;;;;;;;;;;;;;4948783;28;19921;-63
2022/09/22 10:29:43;;;;;;;;;;;;;;;;;;4946814;28;19928;-63
2022/09/22 10:32:11;;;;;;;;;;;;;;;;;;4965020;28;19921;-63
2022/09/22 10:34:36;;;;;;;;;;;;;;;;;;4947169;28;19973;-63
2022/09/22 10:37:02;;;;;;;;;;;;;;;;;;4945679;28;19918;-61
2022/09/22 10:39:27;;;;;;;;;;;;;;;;;;4963163;28;21773;-62
2022/09/22 10:41:55;;;;;;;;;;;;;;;;;;4944560;28;20005;-61
2022/09/22 10:44:20;;;;;;;;;;;;;;;;;;4964650;28;19926;-61
2022/09/22 10:46:48;;;;;;;;;;;;;;;;;;4947844;28;19929;-63
2022/09/22 10:49:13;;;;;;;;;;;;;;;;;;4964395;28;19922;-64
2022/09/22 10:51:38;;;;;;;;;;;;;;;;;;4965957;28;19941;-63
2022/09/22 10:54:05;;;;;;;;;;;;;;;;;;4967589;28;20629;-63
2022/09/22 10:56:30;;;;;;;;;;;;;;;;;;4966289;28;21239;-63
2022/09/22 10:58:55;;;;;;;;;;;;;;;;;;4966349;28;19922;-62
2022/09/22 11:01:21;;;;;;;;;;;;;;;;;;4950927;28;20289;-58
2022/09/22 11:03:46;;;;;;;;;;;;;;;;;;4947613;28;20679;-63
2022/09/22 11:14:24;;;;;;;;;;;;;;;;;;4952385;28;19926;-63
2022/09/22 11:16:50;;;;;;;;;;;;;;;;;;4967246;28;19922;-64
2022/09/22 11:19:17;;;;;;;;;;;;;;;;;;4966211;28;19922;-62
2022/09/22 11:21:42;;;;;;;;;;;;;;;;;;4950765;28;21402;-63
2022/09/22 11:24:08;;;;;;;;;;;;;;;;;;4966526;28;19933;-63
2022/09/22 11:26:36;;;;;;;;;;;;;;;;;;4952271;28;20037;-64
2022/09/22 11:29:04;;;;;;;;;;;;;;;;;;4951924;28;19918;-64
2022/09/22 11:31:29;;;;;;;;;;;;;;;;;;4952365;28;20040;-63
2022/09/22 11:33:56;;;;;;;;;;;;;;;;;;4952529;28;20381;-63
2022/09/22 11:36:22;;;;;;;;;;;;;;;;;;4953200;28;19922;-63
2022/09/22 11:38:47;;;;;;;;;;;;;;;;;;4965429;28;19922;-62
2022/09/22 11:41:14;;;;;;;;;;;;;;;;;;4952711;28;19917;-62
2022/09/22 11:43:39;;;;;;;;;;;;;;;;;;4934084;28;20009;-61
2022/09/22 11:46:04;;;;;;;;;;;;;;;;;;4951899;28;19928;-62
2022/09/22 11:48:33;;;;;;;;;;;;;;;;;;4952460;28;19922;-64
2022/09/22 11:54:17;;;;;;;;;;;;;;;;;;4953091;28;20017;-59
2022/09/22 11:56:43;;;;;;;;;;;;;;;;;;4950322;28;19922;-62
2022/09/22 11:59:08;;;;;;;;;;;;;;;;;;4966323;28;19925;-63
2022/09/22 12:01:34;;;;;;;;;;;;;;;;;;4964614;28;20441;-63
2022/09/22 12:04:00;;;;;;;;;;;;;;;;;;4952184;28;19923;-63
2022/09/22 12:06:28;;;;;;;;;;;;;;;;;;4965259;28;20056;-63
2022/09/22 12:08:55;;;;;;;;;;;;;;;;;;4953501;28;20008;-63
2022/09/22 12:11:23;;;;;;;;;;;;;;;;;;4952222;28;20106;-64
2022/09/22 12:13:52;;;;;;;;;;;;;;;;;;4951179;28;19922;-63
2022/09/22 12:16:20;;;;;;;;;;;;;;;;;;4965367;28;20534;-60
2022/09/22 12:18:45;;;;;;;;;;;;;;;;;;4966959;28;20478;-62
2022/09/22 12:21:13;;;;;;;;;;;;;;;;;;4964551;28;19933;-64
2022/09/22 12:23:38;;;;;;;;;;;;;;;;;;4952399;28;19957;-65
2022/09/22 12:26:07;;;;;;;;;;;;;;;;;;4951544;28;19918;-63
2022/09/22 12:28:32;;;;;;;;;;;;;;;;;;4951463;28;19929;-65
2022/09/22 12:30:58;;;;;;;;;;;;;;;;;;4967015;28;19918;-63
2022/09/22 12:33:23;;;;;;;;;;;;;;;;;;4965989;28;19932;-63
2022/09/22 12:35:50;;;;;;;;;;;;;;;;;;4967967;28;19926;-63
2022/09/22 12:38:16;;;;;;;;;;;;;;;;;;4948038;28;20365;-62
2022/09/22 12:40:42;;;;;;;;;;;;;;;;;;4949504;28;19926;-64
2022/09/22 12:43:07;;;;;;;;;;;;;;;;;;4950417;28;20367;-64
2022/09/22 12:45:33;;;;;;;;;;;;;;;;;;4934261;28;19929;-65
2022/09/22 12:47:58;;;;;;;;;;;;;;;;;;4952796;28;20063;-63
2022/09/22 12:50:40;;;;;;;;;;;;;;;;;;4965170;28;20430;-63
2022/09/22 12:53:27;;;;;;;;;;;;;;;;;;4949243;28;19985;-65
2022/09/22 12:55:55;;;;;;;;;;;;;;;;;;4951244;28;19926;-65
2022/09/22 12:58:25;;;;;;;;;;;;;;;;;;4965049;28;19917;-65
2022/09/22 13:00:51;;;;;;;;;;;;;;;;;;4950922;28;19922;-64
2022/09/22 13:03:18;;;;;;;;;;;;;;;;;;4950376;28;19926;-65
2022/09/22 13:05:44;;;;;;;;;;;;;;;;;;4950219;28;19933;-65
2022/09/22 13:08:12;;;;;;;;;;;;;;;;;;4964312;28;20529;-64
2022/09/22 13:10:37;;;;;;;;;;;;;;;;;;4951129;28;19984;-64
2022/09/22 13:13:05;;;;;;;;;;;;;;;;;;4962410;28;20405;-61
2022/09/22 13:15:34;;;;;;;;;;;;;;;;;;4948075;28;19933;-64
2022/09/22 13:17:59;;;;;;;;;;;;;;;;;;4965199;28;19922;-66
2022/09/22 13:20:25;;;;;;;;;;;;;;;;;;4948741;28;19962;-62
2022/09/22 13:22:51;;;;;;;;;;;;;;;;;;4966742;28;20076;-65
2022/09/22 13:25:16;;;;;;;;;;;;;;;;;;4952231;28;21056;-67
2022/09/22 13:27:41;;;;;;;;;;;;;;;;;;4952877;28;19929;-65
2022/09/22 13:30:06;;;;;;;;;;;;;;;;;;4933922;28;19922;-65
2022/09/22 13:32:32;;;;;;;;;;;;;;;;;;4964742;28;19928;-65
2022/09/22 13:34:57;;;;;;;;;;;;;;;;;;4964856;28;19922;-66
2022/09/22 13:37:22;;;;;;;;;;;;;;;;;;4931873;28;19977;-66
2022/09/22 13:39:50;;;;;;;;;;;;;;;;;;4965195;28;21821;-64
2022/09/22 13:42:18;;;;;;;;;;;;;;;;;;4965707;28;20013;-65
2022/09/22 13:44:44;;;;;;;;;;;;;;;;;;4949404;28;20013;-65
2022/09/22 13:47:10;;;;;;;;;;;;;;;;;;4965658;28;19995;-65
2022/09/22 13:49:35;;;;;;;;;;;;;;;;;;4946560;28;20477;-65
2022/09/22 13:52:05;;;;;;;;;;;;;;;;;;4963572;28;20429;-66
2022/09/22 13:54:31;;;;;;;;;;;;;;;;;;4965719;28;21163;-63
2022/09/22 13:56:59;;;;;;;;;;;;;;;;;;4961140;28;19927;-65
2022/09/22 13:59:25;;;;;;;;;;;;;;;;;;4950835;28;19924;-65
2022/09/22 14:01:52;;;;;;;;;;;;;;;;;;5212127;23;21270;-65
2022/09/22 14:04:18;;;;;;;;;;;;;;;;;;4982869;28;19933;-66
2022/09/22 14:10:00;;;;;;;;;;;;;;;;;;4982127;28;20405;-66
2022/09/22 14:12:30;;;;;;;;;;;;;;;;;;4960212;28;19928;-65
2022/09/22 14:14:56;;;;;;;;;;;;;;;;;;4980668;28;20012;-66
2022/09/22 14:17:21;;;;;;;;;;;;;;;;;;4970777;28;19922;-65
2022/09/22 14:19:49;;;;;;;;;;;;;;;;;;4972350;28;20004;-64
2022/09/22 14:22:17;;;;;;;;;;;;;;;;;;4966479;28;19922;-65
2022/09/22 14:24:45;;;;;;;;;;;;;;;;;;4950171;28;19927;-65
2022/09/22 14:30:30;;;;;;;;;;;;;;;;;;4975089;28;19988;-66
2022/09/22 14:36:11;;;;;;;;;;;;;;;;;;4984308;28;19928;-66
2022/09/22 14:41:57;;;;;;;;;;;;;;;;;;4977921;28;19924;-67
2022/09/22 14:44:25;;;;;;;;;;;;;;;;;;4956725;28;20316;-66
2022/09/22 14:46:51;;;;;;;;;;;;;;;;;;4970743;28;20017;-66
2022/09/22 14:49:18;;;;;;;;;;;;;;;;;;4965202;28;19918;-66
2022/09/22 14:54:59;;;;;;;;;;;;;;;;;;4982155;28;20679;-66
2022/09/22 14:57:27;;;;;;;;;;;;;;;;;;4951419;28;19921;-66
2022/09/22 15:02:43;;;;;;;;;;;;;;;;;;4963795;28;19926;-65
2022/09/22 15:08:27;;;;;;;;;;;;;;;;;;4978290;28;19932;-65
2022/09/22 15:10:53;;;;;;;;;;;;;;;;;;4981769;28;19918;-66
2022/09/22 15:13:20;;;;;;;;;;;;;;;;;;4951526;28;19933;-67
2022/09/22 15:15:46;;;;;;;;;;;;;;;;;;4982508;28;19922;-66
2022/09/22 15:18:15;;;;;;;;;;;;;;;;;;4967287;28;19917;-66
2022/09/22 15:20:41;;;;;;;;;;;;;;;;;;4959779;28;20405;-67
2022/09/22 15:23:07;;;;;;;;;;;;;;;;;;4980137;28;19925;-66
2022/09/22 15:25:32;;;;;;;;;;;;;;;;;;4983255;28;20415;-66
2022/09/22 15:34:31;;;;;;;;;;;;;;;;;;4980649;28;20006;-69
2022/09/22 15:36:59;;;;;;;;;;;;;;;;;;4966190;28;20441;-67
2022/09/22 15:39:25;;;;;;;;;;;;;;;;;;4981766;28;19922;-67
2022/09/22 15:41:50;;;;;;;;;;;;;;;;;;4962276;28;19922;-67
2022/09/22 15:44:18;;;;;;;;;;;;;;;;;;4985555;28;20459;-67
2022/09/22 15:50:03;;;;;;;;;;;;;;;;;;4986912;28;19976;-66
2022/09/22 15:52:37;;;;;;;;;;;;;;;;;;4956192;28;19918;-67
2022/09/22 15:55:03;;;;;;;;;;;;;;;;;;4984058;28;20387;-68
2022/09/22 15:57:29;;;;;;;;;;;;;;;;;;4982455;28;19917;-67
2022/09/22 15:59:54;;;;;;;;;;;;;;;;;;4969248;28;19929;-66
2022/09/22 16:02:23;;;;;;;;;;;;;;;;;;4969969;28;19957;-68
2022/09/22 16:08:20;;;;;;;;;;;;;;;;;;4981356;28;20015;-66
2022/09/22 16:10:48;;;;;;;;;;;;;;;;;;4963230;28;19925;-67
2022/09/22 16:13:13;;;;;;;;;;;;;;;;;;4984524;28;19929;-67
2022/09/22 16:15:38;;;;;;;;;;;;;;;;;;4973064;28;19926;-67
2022/09/22 16:18:07;;;;;;;;;;;;;;;;;;4958012;28;19917;-67
2022/09/22 16:23:48;;;;;;;;;;;;;;;;;;4984566;28;21416;-67
2022/09/22 16:26:13;;;;;;;;;;;;;;;;;;4974191;28;20008;-66
2022/09/22 16:28:38;;;;;;;;;;;;;;;;;;4984587;28;19932;-67
2022/09/22 16:31:07;;;;;;;;;;;;;;;;;;4969316;28;19918;-67
2022/09/22 16:33:46;;;;;;;;;;;;;;;;;;4985990;28;19928;-67
2022/09/22 16:36:21;;;;;;;;;;;;;;;;;;4969601;28;19960;-68
2022/09/22 16:38:47;;;;;;;;;;;;;;;;;;4954647;28;20554;-67
2022/09/22 16:41:12;;;;;;;;;;;;;;;;;;4961027;28;19921;-66
2022/09/22 16:43:40;;;;;;;;;;;;;;;;;;4984976;28;19925;-68
2022/09/22 16:49:23;;;;;;;;;;;;;;;;;;4984710;28;20423;-67
2022/09/22 16:51:49;;;;;;;;;;;;;;;;;;4949196;28;19921;-67
2022/09/22 16:54:32;;;;;;;;;;;;;;;;;;4969997;28;20497;-66
2022/09/22 16:56:57;;;;;;;;;;;;;;;;;;4969528;28;21850;-66
2022/09/22 16:59:28;;;;;;;;;;;;;;;;;;4982078;28;19964;-67
2022/09/22 17:02:08;;;;;;;;;;;;;;;;;;4978280;28;20575;-67
2022/09/22 17:04:34;;;;;;;;;;;;;;;;;;4978711;28;19984;-66
2022/09/22 17:06:59;;;;;;;;;;;;;;;;;;4961791;28;20333;-67
2022/09/22 17:09:25;;;;;;;;;;;;;;;;;;4966440;28;19926;-67
2022/09/22 17:11:56;;;;;;;;;;;;;;;;;;4946701;28;19924;-67
2022/09/22 17:14:23;;;;;;;;;;;;;;;;;;4963457;28;19934;-66
2022/09/22 17:16:50;;;;;;;;;;;;;;;;;;4963775;28;19968;-67
2022/09/22 17:19:18;;;;;;;;;;;;;;;;;;4959479;28;20056;-67
2022/09/22 17:21:45;;;;;;;;;;;;;;;;;;4959633;28;19918;-67
2022/09/22 17:24:11;;;;;;;;;;;;;;;;;;4955000;28;19968;-67
2022/09/22 17:29:53;;;;;;;;;;;;;;;;;;4975355;28;19932;-67
2022/09/22 17:32:22;;;;;;;;;;;;;;;;;;4984795;28;19921;-67
2022/09/22 17:34:47;;;;;;;;;;;;;;;;;;4967800;28;20838;-67
2022/09/22 17:40:29;;;;;;;;;;;;;;;;;;4976595;28;21269;-67
2022/09/22 17:42:56;;;;;;;;;;;;;;;;;;4983143;28;19937;-66
2022/09/22 17:45:21;;;;;;;;;;;;;;;;;;4968199;28;20020;-67
2022/09/22 17:56:43;;;;;;;;;;;;;;;;;;4964250;28;19918;-66